Time;durP1;ratioP1;P1;durP2;ratioP2;P2;SDS_P1;SDS_P2;PMS_P1;PMS_P2;Temp;Humidity;BMP_temperature;BMP_pressure;BME280_temperature;BME280_humidity;BME280_pressure;Samples;Min_cycle;Max_cycle;Signal;HPM_P1;HPM_P2
2021/09/13 00:00:57;;;;;;;;;;;;;;;17.25;72.70;100223.69;5056646;28;19966;-63
2021/09/13 00:03:43;;;;;;;;;;;;;;;17.26;72.74;100224.56;5055893;28;19974;-62
2021/09/13 00:06:30;;;;;;;;;;;;;;;17.25;72.73;100222.81;5054536;28;19966;-63
2021/09/13 00:09:20;;;;;;;;;;;;;;;17.25;72.76;100210.56;5055404;28;20015;-63
2021/09/13 00:12:04;;;;;;;;;;;;;;;17.26;72.58;100211.47;5055588;28;20330;-62
2021/09/13 00:14:57;;;;;;;;;;;;;;;17.27;72.90;100207.97;5055948;28;19943;-62
2021/09/13 00:17:49;;;;;;;;;;;;;;;17.26;72.65;100207.06;5054670;28;20395;-62
2021/09/13 00:20:42;;;;;;;;;;;;;;;17.27;72.65;100210.59;5054676;28;20280;-63
2021/09/13 00:23:26;;;;;;;;;;;;;;;17.26;72.64;100207.06;5054499;28;19971;-63
2021/09/13 00:26:10;;;;;;;;;;;;;;;17.26;72.91;100211.47;5055072;28;19928;-62
2021/09/13 00:29:02;;;;;;;;;;;;;;;17.26;72.90;100209.69;5054851;28;19928;-63
2021/09/13 00:31:49;;;;;;;;;;;;;;;17.25;72.79;100200.09;5054736;28;19928;-62
2021/09/13 00:34:35;;;;;;;;;;;;;;;17.25;72.85;100197.47;5055395;28;19928;-63
2021/09/13 00:37:19;;;;;;;;;;;;;;;17.24;72.81;100200.97;5054541;28;19928;-62
2021/09/13 00:40:08;;;;;;;;;;;;;;;17.24;72.72;100195.75;5054802;28;19927;-64
2021/09/13 00:43:01;;;;;;;;;;;;;;;17.23;72.88;100190.53;5054159;28;19928;-64
2021/09/13 00:45:47;;;;;;;;;;;;;;;17.23;72.90;100191.38;5054915;28;19974;-64
2021/09/13 00:48:34;;;;;;;;;;;;;;;17.22;72.89;100188.78;5055411;28;19975;-64
2021/09/13 00:51:22;;;;;;;;;;;;;;;17.21;72.83;100187.91;5054961;28;20051;-64
2021/09/13 00:54:11;;;;;;;;;;;;;;;17.21;72.88;100180.06;5053656;28;20008;-63
2021/09/13 00:57:01;;;;;;;;;;;;;;;17.20;72.98;100183.59;5053783;28;19927;-64
2021/09/13 00:59:45;;;;;;;;;;;;;;;17.18;72.77;100177.50;5055036;28;20425;-64
2021/09/13 01:02:38;;;;;;;;;;;;;;;17.18;72.87;100177.50;5055145;28;19966;-65
2021/09/13 01:05:25;;;;;;;;;;;;;;;17.17;72.82;100181.00;5055047;28;20019;-62
2021/09/13 01:08:15;;;;;;;;;;;;;;;17.16;72.94;100174.00;5068189;28;20016;-62
2021/09/13 01:11:07;;;;;;;;;;;;;;;17.14;72.79;100171.38;5053545;28;19927;-62
2021/09/13 01:14:02;;;;;;;;;;;;;;;17.13;72.77;100167.03;5052788;28;20434;-62
2021/09/13 01:16:58;;;;;;;;;;;;;;;17.12;72.94;100165.31;5053847;28;20406;-64
2021/09/13 01:19:47;;;;;;;;;;;;;;;17.11;72.99;100173.16;5054525;28;19975;-64
2021/09/13 01:22:32;;;;;;;;;;;;;;;17.11;72.96;100160.09;5053681;28;20417;-64
2021/09/13 01:25:24;;;;;;;;;;;;;;;17.10;72.99;100163.56;5054050;28;19940;-63
2021/09/13 01:28:17;;;;;;;;;;;;;;;17.07;72.99;100163.59;5053730;28;19928;-64
2021/09/13 01:31:09;;;;;;;;;;;;;;;17.06;72.95;100165.38;5053861;28;20279;-64
2021/09/13 01:33:59;;;;;;;;;;;;;;;17.05;72.98;100169.72;5053359;28;19928;-64
2021/09/13 01:36:43;;;;;;;;;;;;;;;17.03;73.03;100181.97;5052771;28;19928;-64
2021/09/13 01:39:38;;;;;;;;;;;;;;;17.02;72.87;100181.97;5054123;28;19928;-64
2021/09/13 01:42:28;;;;;;;;;;;;;;;17.00;72.88;100181.13;5053140;28;20365;-64
2021/09/13 01:45:12;;;;;;;;;;;;;;;17.00;72.89;100183.72;5053381;28;19947;-64
2021/09/13 01:47:57;;;;;;;;;;;;;;;16.99;72.94;100176.75;5053060;28;20022;-64
2021/09/13 01:50:52;;;;;;;;;;;;;;;16.98;72.97;100170.66;5053537;28;19928;-64
2021/09/13 01:53:42;;;;;;;;;;;;;;;16.97;72.87;100176.78;5052439;28;19947;-64
2021/09/13 01:56:30;;;;;;;;;;;;;;;16.94;72.91;100174.16;5067463;28;19932;-65
2021/09/13 01:59:23;;;;;;;;;;;;;;;16.95;72.91;100180.31;5067334;28;20016;-64
2021/09/13 02:02:13;;;;;;;;;;;;;;;16.93;72.88;100187.25;5052739;28;19928;-63
2021/09/13 02:05:08;;;;;;;;;;;;;;;16.89;72.99;100184.66;5052993;28;19943;-64
2021/09/13 02:07:54;;;;;;;;;;;;;;;16.89;72.91;100181.19;5053848;28;20026;-64
2021/09/13 02:10:38;;;;;;;;;;;;;;;16.88;72.81;100180.31;5053743;28;19928;-64
2021/09/13 02:13:25;;;;;;;;;;;;;;;16.87;72.83;100175.09;5053828;28;20280;-64
2021/09/13 02:16:18;;;;;;;;;;;;;;;16.86;72.79;100178.59;5053330;28;19963;-64
2021/09/13 02:19:10;;;;;;;;;;;;;;;16.83;72.87;100173.38;5052445;28;19928;-64
2021/09/13 02:22:00;;;;;;;;;;;;;;;16.82;72.91;100174.25;5053944;28;19951;-64
2021/09/13 02:24:52;;;;;;;;;;;;;;;16.81;72.94;100172.50;5054995;28;20055;-63
2021/09/13 02:27:42;;;;;;;;;;;;;;;16.80;72.87;100165.53;5057568;28;19932;-63
2021/09/13 02:30:35;;;;;;;;;;;;;;;16.78;72.90;100167.28;5056870;28;19932;-63
2021/09/13 02:33:19;;;;;;;;;;;;;;;16.75;72.88;100158.59;5056451;28;20295;-63
2021/09/13 02:36:08;;;;;;;;;;;;;;;16.74;72.88;100156.00;5070973;28;20330;-62
2021/09/13 02:38:58;;;;;;;;;;;;;;;16.75;72.87;100158.59;5056924;28;19971;-63
2021/09/13 02:41:42;;;;;;;;;;;;;;;16.74;72.74;100158.59;5056817;28;19966;-63
2021/09/13 02:44:32;;;;;;;;;;;;;;;16.71;72.92;100153.38;5056633;28;19932;-63
2021/09/13 02:47:22;;;;;;;;;;;;;;;16.71;72.85;100153.38;5056378;28;20403;-63
2021/09/13 02:50:12;;;;;;;;;;;;;;;16.69;72.94;100158.66;5056179;28;19935;-63
2021/09/13 02:53:05;;;;;;;;;;;;;;;16.69;72.87;100156.03;5057049;28;20363;-63
2021/09/13 02:55:57;;;;;;;;;;;;;;;16.68;72.85;100154.28;5057615;28;20027;-63
2021/09/13 02:58:41;;;;;;;;;;;;;;;16.67;72.92;100155.19;5056226;28;20288;-62
2021/09/13 03:01:25;;;;;;;;;;;;;;;16.66;72.79;100145.59;5057206;28;20279;-62
2021/09/13 03:04:17;;;;;;;;;;;;;;;16.65;72.68;100140.38;5057028;28;19928;-62
2021/09/13 03:07:07;;;;;;;;;;;;;;;16.63;72.92;100140.38;5070104;28;19928;-63
2021/09/13 03:10:00;;;;;;;;;;;;;;;16.64;72.83;100141.25;5056062;28;19974;-63
2021/09/13 03:12:50;;;;;;;;;;;;;;;16.63;72.79;100142.13;5055949;28;19927;-62
2021/09/13 03:15:37;;;;;;;;;;;;;;;16.62;72.69;100145.63;5056799;28;20023;-63
2021/09/13 03:18:27;;;;;;;;;;;;;;;16.60;72.74;100143.00;5055680;28;19928;-62
2021/09/13 03:21:19;;;;;;;;;;;;;;;16.59;72.72;100149.09;5056020;28;20019;-63
2021/09/13 03:24:03;;;;;;;;;;;;;;;16.56;72.77;100144.78;5055869;28;20031;-63
2021/09/13 03:26:48;;;;;;;;;;;;;;;16.55;72.61;100143.03;5056218;28;20039;-62
2021/09/13 03:29:31;;;;;;;;;;;;;;;16.55;72.78;100142.19;5055945;28;19970;-63
2021/09/13 03:32:15;;;;;;;;;;;;;;;16.52;72.74;100148.28;5056695;28;20008;-63
2021/09/13 03:34:59;;;;;;;;;;;;;;;16.51;72.72;100146.53;5056448;28;19949;-63
2021/09/13 03:37:49;;;;;;;;;;;;;;;16.50;72.55;100146.56;5055424;28;19967;-63
2021/09/13 03:40:36;;;;;;;;;;;;;;;16.47;72.57;100152.69;5055721;28;19975;-62
2021/09/13 03:43:23;;;;;;;;;;;;;;;16.45;72.71;100164.91;5056552;28;20012;-63
2021/09/13 03:46:07;;;;;;;;;;;;;;;16.43;72.68;100157.06;5055016;28;20395;-63
2021/09/13 03:48:59;;;;;;;;;;;;;;;16.41;72.52;100165.81;5056350;28;19928;-63
2021/09/13 03:51:46;;;;;;;;;;;;;;;16.41;72.48;100165.81;5054702;28;20020;-63
2021/09/13 03:54:30;;;;;;;;;;;;;;;16.39;72.46;100154.47;5056017;28;20455;-64
2021/09/13 03:57:14;;;;;;;;;;;;;;;16.38;72.36;100153.63;5069441;28;19994;-64
2021/09/13 03:59:58;;;;;;;;;;;;;;;16.37;72.52;100161.47;5056388;28;19927;-65
2021/09/13 04:02:48;;;;;;;;;;;;;;;16.36;72.33;100171.06;5054633;28;20023;-64
2021/09/13 04:05:42;;;;;;;;;;;;;;;16.35;72.46;100163.25;5055279;28;19928;-64
2021/09/13 04:11:27;;;;;;;;;;;;;;;16.33;72.41;100171.09;5055684;28;19927;-64
2021/09/13 04:14:14;;;;;;;;;;;;;;;16.34;72.41;100172.81;5054757;28;19927;-62
2021/09/13 04:17:00;;;;;;;;;;;;;;;16.33;72.52;100163.25;5054745;28;20395;-63
2021/09/13 04:19:45;;;;;;;;;;;;;;;16.33;72.43;100165.84;5055700;28;19944;-63
2021/09/13 04:22:31;;;;;;;;;;;;;;;16.32;72.38;100166.72;5055734;28;19935;-63
2021/09/13 04:25:18;;;;;;;;;;;;;;;16.30;72.39;100158.03;5054951;28;19976;-63
2021/09/13 04:28:02;;;;;;;;;;;;;;;16.31;72.55;100162.38;5053950;28;19927;-63
2021/09/13 04:30:49;;;;;;;;;;;;;;;16.31;72.39;100159.75;5054633;28;20287;-62
2021/09/13 04:33:33;;;;;;;;;;;;;;;16.28;72.57;100165.00;5055490;28;20421;-63
2021/09/13 04:36:22;;;;;;;;;;;;;;;16.27;72.51;100163.28;5055294;28;19982;-63
2021/09/13 04:39:09;;;;;;;;;;;;;;;16.26;72.50;100161.56;5054335;28;19931;-64
2021/09/13 04:41:58;;;;;;;;;;;;;;;16.25;72.24;100157.19;5054571;28;19943;-65
2021/09/13 04:44:45;;;;;;;;;;;;;;;16.24;72.27;100164.16;5054592;28;19928;-64
2021/09/13 04:47:35;;;;;;;;;;;;;;;16.22;72.47;100162.44;5054367;28;19928;-64
2021/09/13 04:50:19;;;;;;;;;;;;;;;16.21;72.48;100158.94;5053627;28;19927;-64
2021/09/13 04:53:06;;;;;;;;;;;;;;;16.19;72.47;100158.09;5054587;28;19970;-64
2021/09/13 04:55:52;;;;;;;;;;;;;;;16.18;72.20;100158.09;5053774;28;19928;-63
2021/09/13 04:58:45;;;;;;;;;;;;;;;16.17;72.16;100158.97;5054437;28;20030;-64
2021/09/13 05:01:37;;;;;;;;;;;;;;;16.16;72.60;100155.50;5054721;28;19928;-62
2021/09/13 05:04:28;;;;;;;;;;;;;;;16.13;72.18;100153.75;5053869;28;19966;-62
2021/09/13 05:07:20;;;;;;;;;;;;;;;16.14;72.26;100154.63;5053780;28;20006;-63
2021/09/13 05:10:09;;;;;;;;;;;;;;;16.12;72.25;100161.63;5054048;28;19927;-63
2021/09/13 05:13:00;;;;;;;;;;;;;;;16.12;72.33;100162.47;5053626;28;20323;-62
2021/09/13 05:15:44;;;;;;;;;;;;;;;16.12;72.20;100167.69;5053568;28;20015;-62
2021/09/13 05:18:28;;;;;;;;;;;;;;;16.11;72.38;100168.59;5053834;28;19970;-63
2021/09/13 05:21:13;;;;;;;;;;;;;;;16.10;72.30;100158.13;5054504;28;19928;-63
2021/09/13 05:24:05;;;;;;;;;;;;;;;16.08;72.35;100160.75;5054714;28;19931;-62
2021/09/13 05:26:55;;;;;;;;;;;;;;;16.08;72.29;100160.75;5053431;28;20327;-63
2021/09/13 05:29:47;;;;;;;;;;;;;;;16.06;72.21;100154.69;5053656;28;19928;-62
2021/09/13 05:32:39;;;;;;;;;;;;;;;16.08;72.20;100158.16;5053045;28;19943;-62
2021/09/13 05:35:26;;;;;;;;;;;;;;;16.07;72.28;100163.38;5053584;28;19974;-62
2021/09/13 05:38:18;;;;;;;;;;;;;;;16.07;72.23;100169.47;5053961;28;20296;-63
2021/09/13 05:41:05;;;;;;;;;;;;;;;16.07;72.25;100164.25;5053173;28;20406;-63
2021/09/13 05:43:49;;;;;;;;;;;;;;;16.08;72.49;100172.94;5053511;28;20070;-63
2021/09/13 05:46:39;;;;;;;;;;;;;;;16.09;72.25;100172.97;5054335;28;19927;-63
2021/09/13 05:49:31;;;;;;;;;;;;;;;16.11;72.35;100175.56;5052845;28;20422;-63
2021/09/13 05:52:17;;;;;;;;;;;;;;;16.12;72.56;100166.84;5053160;28;19943;-62
2021/09/13 05:55:04;;;;;;;;;;;;;;;16.13;72.41;100171.19;5053198;28;19928;-62
2021/09/13 05:57:54;;;;;;;;;;;;;;;16.13;72.26;100165.97;5053179;28;19971;-63
2021/09/13 06:00:44;;;;;;;;;;;;;;;16.13;72.58;100177.28;5053671;28;19927;-63
2021/09/13 06:03:36;;;;;;;;;;;;;;;16.17;72.47;100179.88;5052816;28;19928;-63
2021/09/13 06:06:26;;;;;;;;;;;;;;;16.17;72.72;100182.50;5067164;28;19986;-63
2021/09/13 06:09:11;;;;;;;;;;;;;;;16.19;72.69;100185.97;5053189;28;19928;-63
2021/09/13 06:11:57;;;;;;;;;;;;;;;16.18;72.60;100182.50;5052694;28;19967;-63
2021/09/13 06:14:42;;;;;;;;;;;;;;;16.18;72.56;100179.91;5052891;28;19963;-64
2021/09/13 06:17:28;;;;;;;;;;;;;;;16.21;72.79;100182.47;5052848;28;19927;-64
2021/09/13 06:20:21;;;;;;;;;;;;;;;16.20;72.82;100185.97;5053082;28;19991;-64
2021/09/13 06:23:14;;;;;;;;;;;;;;;16.22;72.73;100188.59;5052942;28;20023;-64
2021/09/13 06:26:04;;;;;;;;;;;;;;;16.20;72.72;100185.09;5052964;28;19928;-64
2021/09/13 06:28:54;;;;;;;;;;;;;;;16.21;72.52;100187.69;5067196;28;19932;-63
2021/09/13 06:31:38;;;;;;;;;;;;;;;16.22;73.07;100188.59;5052901;28;19967;-62
2021/09/13 06:34:33;;;;;;;;;;;;;;;16.22;72.77;100202.50;5053563;28;19927;-63
2021/09/13 06:37:25;;;;;;;;;;;;;;;16.23;72.96;100203.41;5052846;28;19931;-62
2021/09/13 06:40:18;;;;;;;;;;;;;;;16.23;72.83;100200.78;5052815;28;19948;-63
2021/09/13 06:43:10;;;;;;;;;;;;;;;16.24;72.86;100203.38;5052596;28;19928;-63
2021/09/13 06:49:09;;;;;;;;;;;;;;;16.26;72.88;100201.63;5053841;28;19927;-63
2021/09/13 06:51:53;;;;;;;;;;;;;;;16.26;73.06;100201.63;5052694;28;19943;-63
2021/09/13 06:54:43;;;;;;;;;;;;;;;16.27;73.01;100200.75;5052950;28;19928;-63
2021/09/13 06:57:35;;;;;;;;;;;;;;;16.27;73.13;100202.50;5052120;28;20332;-63
2021/09/13 07:00:27;;;;;;;;;;;;;;;16.29;73.00;100198.13;5052346;28;19928;-63
2021/09/13 07:03:19;;;;;;;;;;;;;;;16.29;73.08;100196.38;5051846;28;20444;-63
2021/09/13 07:06:08;;;;;;;;;;;;;;;16.30;73.06;100194.63;5053301;28;19931;-63
2021/09/13 07:09:01;;;;;;;;;;;;;;;16.31;73.13;100206.84;5052610;28;19970;-63
2021/09/13 07:11:47;;;;;;;;;;;;;;;16.31;73.29;100195.50;5053475;28;20008;-63
2021/09/13 07:14:33;;;;;;;;;;;;;;;16.31;73.15;100198.97;5056327;28;19966;-63
2021/09/13 07:17:26;;;;;;;;;;;;;;;16.33;73.16;100202.47;5056877;28;19970;-63
2021/09/13 07:20:18;;;;;;;;;;;;;;;16.32;73.28;100208.56;5055834;28;19928;-63
2021/09/13 07:23:11;;;;;;;;;;;;;;;16.34;73.43;100216.44;5056632;28;20449;-63
2021/09/13 07:26:06;;;;;;;;;;;;;;;16.33;73.33;100215.53;5055172;28;19944;-62
2021/09/13 07:29:01;;;;;;;;;;;;;;;16.34;73.45;100216.44;5055430;28;19928;-63
2021/09/13 07:31:53;;;;;;;;;;;;;;;16.35;73.35;100218.16;5056632;28;19928;-63
2021/09/13 07:34:40;;;;;;;;;;;;;;;16.35;73.40;100223.41;5055438;28;20006;-63
2021/09/13 07:37:24;;;;;;;;;;;;;;;16.36;73.40;100225.09;5055825;28;19928;-63
2021/09/13 07:40:09;;;;;;;;;;;;;;;16.35;73.58;100223.41;5056373;28;19981;-63
2021/09/13 07:42:58;;;;;;;;;;;;;;;16.36;73.39;100212.91;5055894;28;19928;-63
2021/09/13 07:45:47;;;;;;;;;;;;;;;16.36;73.36;100217.25;5055593;28;19930;-63
2021/09/13 07:48:40;;;;;;;;;;;;;;;16.37;73.63;100219.00;5055206;28;19950;-62
2021/09/13 07:51:33;;;;;;;;;;;;;;;16.36;73.53;100220.75;5055698;28;19970;-64
2021/09/13 07:54:23;;;;;;;;;;;;;;;16.35;73.41;100216.41;5055112;28;19939;-64
2021/09/13 07:57:10;;;;;;;;;;;;;;;16.38;73.47;100223.34;5054901;28;20055;-64
2021/09/13 08:00:00;;;;;;;;;;;;;;;16.36;73.56;100218.16;5055403;28;19927;-63
2021/09/13 08:02:54;;;;;;;;;;;;;;;16.37;73.78;100219.00;5054877;28;19971;-64
2021/09/13 08:05:50;;;;;;;;;;;;;;;16.37;73.71;100213.78;5055460;28;19979;-64
2021/09/13 08:08:35;;;;;;;;;;;;;;;16.37;73.66;100219.00;5055234;28;19989;-64
2021/09/13 08:11:19;;;;;;;;;;;;;;;16.39;73.72;100219.88;5054946;28;20307;-64
2021/09/13 08:14:11;;;;;;;;;;;;;;;16.39;73.85;100220.75;5055864;28;20011;-64
2021/09/13 08:17:06;;;;;;;;;;;;;;;16.40;73.80;100229.47;5054933;28;19928;-64
2021/09/13 08:19:59;;;;;;;;;;;;;;;16.39;73.67;100225.09;5055283;28;20445;-63
2021/09/13 08:22:48;;;;;;;;;;;;;;;16.38;73.92;100224.25;5054759;28;19970;-62
2021/09/13 08:25:35;;;;;;;;;;;;;;;16.40;73.81;100225.09;5054691;28;19967;-62
2021/09/13 08:28:25;;;;;;;;;;;;;;;16.41;73.71;100216.38;5055134;28;19927;-64
2021/09/13 08:31:17;;;;;;;;;;;;;;;16.41;73.78;100221.63;5054515;28;19928;-64
2021/09/13 08:34:11;;;;;;;;;;;;;;;16.44;73.83;100223.34;5054512;28;19975;-63
2021/09/13 08:36:54;;;;;;;;;;;;;;;16.43;73.90;100226.84;5055658;28;19953;-64
2021/09/13 08:39:38;;;;;;;;;;;;;;;16.44;73.89;100225.97;5055012;28;20398;-65
2021/09/13 08:42:35;;;;;;;;;;;;;;;16.43;74.01;100225.06;5055353;28;19927;-64
2021/09/13 08:46:16;;;;;;;;;;;;;;;16.44;74.14;100237.28;5054034;28;19994;-64
2021/09/13 08:48:45;;;;;;;;;;;;;;;16.46;74.12;100234.66;5052203;28;19966;-65
2021/09/13 08:51:35;;;;;;;;;;;;;;;16.47;74.25;100238.13;5054374;28;19969;-64
2021/09/13 08:54:25;;;;;;;;;;;;;;;16.47;74.27;100239.03;5054168;28;20291;-63
2021/09/13 08:57:17;;;;;;;;;;;;;;;16.49;74.13;100233.78;5068111;28;20398;-64
2021/09/13 09:00:04;;;;;;;;;;;;;;;16.49;74.28;100234.66;5054264;28;19927;-64
2021/09/13 09:02:48;;;;;;;;;;;;;;;16.51;74.19;100242.47;5054622;28;19955;-65
2021/09/13 09:05:38;;;;;;;;;;;;;;;16.52;74.17;100242.47;5054072;28;20295;-63
2021/09/13 09:08:36;;;;;;;;;;;;;;;16.54;74.17;100242.47;5054103;28;20010;-64
2021/09/13 09:11:28;;;;;;;;;;;;;;;16.55;74.21;100234.59;5053459;28;19967;-65
2021/09/13 09:14:30;;;;;;;;;;;;;;;16.58;74.05;100238.97;5053486;28;19966;-64
2021/09/13 09:17:28;;;;;;;;;;;;;;;16.60;73.98;100234.56;5053822;28;19927;-64
2021/09/13 09:20:23;;;;;;;;;;;;;;;16.61;74.15;100233.69;5053546;28;19927;-64
2021/09/13 09:23:18;;;;;;;;;;;;;;;16.63;73.85;100226.72;5054457;28;19932;-64
2021/09/13 09:26:17;;;;;;;;;;;;;;;16.66;74.11;100233.69;5053299;28;19928;-64
2021/09/13 09:29:21;;;;;;;;;;;;;;;16.67;74.16;100235.41;5052914;28;19928;-63
2021/09/13 09:32:05;;;;;;;;;;;;;;;16.69;73.96;100225.78;5053173;28;19928;-63
2021/09/13 09:34:49;;;;;;;;;;;;;;;16.71;74.08;100226.66;5053942;28;19927;-63
2021/09/13 09:37:41;;;;;;;;;;;;;;;16.73;74.00;100225.78;5053041;28;19951;-63
2021/09/13 09:40:31;;;;;;;;;;;;;;;16.73;74.11;100228.41;5054398;28;19947;-64
2021/09/13 09:43:23;;;;;;;;;;;;;;;16.75;74.00;100231.88;5053438;28;19927;-63
2021/09/13 09:46:16;;;;;;;;;;;;;;;16.77;73.91;100221.41;5052492;28;19939;-64
2021/09/13 09:49:15;;;;;;;;;;;;;;;16.78;74.05;100212.69;5053168;28;19959;-64
2021/09/13 09:52:01;;;;;;;;;;;;;;;16.82;74.02;100216.13;5052882;28;20395;-64
2021/09/13 09:55:06;;;;;;;;;;;;;;;16.83;74.07;100223.09;5053602;28;19928;-64
2021/09/13 09:58:05;;;;;;;;;;;;;;;16.87;74.08;100219.59;5052501;28;20448;-64
2021/09/13 10:00:50;;;;;;;;;;;;;;;16.87;73.80;100215.22;5053728;28;20421;-64
2021/09/13 10:03:42;;;;;;;;;;;;;;;16.89;73.79;100218.69;5054564;28;20387;-64
2021/09/13 10:06:34;;;;;;;;;;;;;;;16.92;74.01;100212.56;5053063;28;19928;-64
2021/09/13 10:09:23;;;;;;;;;;;;;;;16.93;73.89;100216.91;5053617;28;19975;-64
2021/09/13 10:12:18;;;;;;;;;;;;;;;16.95;73.97;100212.56;5052623;28;20045;-64
2021/09/13 10:15:08;;;;;;;;;;;;;;;16.97;73.96;100210.81;5052778;28;19928;-64
2021/09/13 10:18:01;;;;;;;;;;;;;;;16.99;73.80;100209.06;5052971;28;19927;-64
2021/09/13 10:20:53;;;;;;;;;;;;;;;17.00;73.70;100199.44;5053700;28;20345;-64
2021/09/13 10:23:42;;;;;;;;;;;;;;;17.01;73.70;100194.22;5052686;28;19932;-64
2021/09/13 10:26:30;;;;;;;;;;;;;;;17.02;73.58;100195.94;5066748;28;20054;-64
2021/09/13 10:29:17;;;;;;;;;;;;;;;17.04;73.72;100194.19;5052656;28;19949;-64
2021/09/13 10:32:08;;;;;;;;;;;;;;;17.07;73.56;100195.91;5053578;28;20437;-64
2021/09/13 10:34:56;;;;;;;;;;;;;;;17.08;73.56;100191.53;5053582;28;20394;-63
2021/09/13 10:37:55;;;;;;;;;;;;;;;17.10;73.62;100195.00;5053474;28;20034;-63
2021/09/13 10:40:47;;;;;;;;;;;;;;;17.12;73.62;100175.78;5053408;28;19927;-62
2021/09/13 10:43:37;;;;;;;;;;;;;;;17.13;73.59;100171.41;5052320;28;19971;-62
2021/09/13 10:46:55;;;;;;;;;;;;;;;17.16;73.87;100168.78;5053296;28;19928;-62
2021/09/13 10:50:04;;;;;;;;;;;;;;;17.17;73.64;100168.75;5056433;28;19987;-63
2021/09/13 10:52:59;;;;;;;;;;;;;;;17.21;73.56;100169.56;5056572;28;20280;-62
2021/09/13 10:55:52;;;;;;;;;;;;;;;17.22;73.34;100163.47;5056667;28;19967;-62
2021/09/13 10:58:41;;;;;;;;;;;;;;;17.25;73.52;100160.81;5056063;28;19928;-62
2021/09/13 11:01:27;;;;;;;;;;;;;;;17.27;73.34;100159.06;5057335;28;20292;-62
2021/09/13 11:04:11;;;;;;;;;;;;;;;17.29;73.38;100162.53;5056461;28;19928;-63
2021/09/13 11:07:04;;;;;;;;;;;;;;;17.32;73.36;100164.25;5056701;28;19953;-62
2021/09/13 11:10:03;;;;;;;;;;;;;;;17.34;73.28;100163.38;5056058;28;20440;-62
2021/09/13 11:12:57;;;;;;;;;;;;;;;17.36;73.20;100163.34;5057059;28;19931;-62
2021/09/13 11:15:58;;;;;;;;;;;;;;;17.37;73.43;100165.06;5056946;28;20386;-63
2021/09/13 11:18:50;;;;;;;;;;;;;;;17.39;73.14;100163.31;5055882;28;19928;-62
2021/09/13 11:21:43;;;;;;;;;;;;;;;17.40;73.27;100162.44;5055800;28;19978;-63
2021/09/13 11:24:42;;;;;;;;;;;;;;;17.43;73.13;100158.91;5056602;28;19975;-62
2021/09/13 11:27:26;;;;;;;;;;;;;;;17.42;73.12;100150.19;5055697;28;19990;-62
2021/09/13 11:30:10;;;;;;;;;;;;;;;17.44;73.11;100152.78;5056313;28;19963;-62
2021/09/13 11:33:02;;;;;;;;;;;;;;;17.43;73.06;100135.31;5055670;28;19963;-62
2021/09/13 11:36:00;;;;;;;;;;;;;;;17.44;72.95;100127.44;5055769;28;19928;-63
2021/09/13 11:39:02;;;;;;;;;;;;;;;17.45;73.03;100125.69;5055831;28;19943;-63
2021/09/13 11:42:01;;;;;;;;;;;;;;;17.47;72.98;100126.56;5056607;28;20331;-62
2021/09/13 11:44:54;;;;;;;;;;;;;;;17.47;72.92;100121.31;5056701;28;19966;-63
2021/09/13 11:47:47;;;;;;;;;;;;;;;17.47;72.99;100119.53;5054926;28;19974;-62
2021/09/13 11:50:39;;;;;;;;;;;;;;;17.49;72.92;100125.63;5055380;28;20016;-62
2021/09/13 11:53:32;;;;;;;;;;;;;;;17.49;72.85;100123.03;5054996;28;19967;-63
2021/09/13 11:56:19;;;;;;;;;;;;;;;17.50;72.80;100130.00;5054916;28;19927;-62
2021/09/13 11:59:18;;;;;;;;;;;;;;;17.53;72.81;100131.72;5055611;28;20432;-62
2021/09/13 12:02:05;;;;;;;;;;;;;;;17.55;72.86;100134.31;5055018;28;19928;-62
2021/09/13 12:04:52;;;;;;;;;;;;;;;17.55;72.99;100129.09;5055085;28;19928;-62
2021/09/13 12:07:44;;;;;;;;;;;;;;;17.56;72.70;100122.97;5055171;28;19927;-63
2021/09/13 12:10:32;;;;;;;;;;;;;;;17.56;72.64;100121.19;5054765;28;20023;-62
2021/09/13 12:13:27;;;;;;;;;;;;;;;17.56;72.61;100122.97;5054720;28;19990;-62
2021/09/13 12:16:20;;;;;;;;;;;;;;;17.56;72.68;100115.09;5054417;28;19943;-62
2021/09/13 12:19:23;;;;;;;;;;;;;;;17.56;72.75;100113.34;5055175;28;19974;-62
2021/09/13 12:22:13;;;;;;;;;;;;;;;17.57;72.68;100112.44;5054560;28;20319;-62
2021/09/13 12:25:07;;;;;;;;;;;;;;;17.57;72.55;100109.84;5054459;28;19931;-62
2021/09/13 12:27:57;;;;;;;;;;;;;;;17.58;72.73;100103.72;5054067;28;19928;-63
2021/09/13 12:30:42;;;;;;;;;;;;;;;17.59;72.72;100096.72;5054492;28;19928;-62
2021/09/13 12:33:41;;;;;;;;;;;;;;;17.58;72.65;100081.88;5068390;28;19944;-62
2021/09/13 12:36:30;;;;;;;;;;;;;;;17.58;72.72;100081.88;5055398;28;19927;-62
2021/09/13 12:39:20;;;;;;;;;;;;;;;17.59;72.66;100075.78;5054227;28;20297;-64
2021/09/13 12:42:26;;;;;;;;;;;;;;;17.60;72.53;100078.34;5054321;28;19971;-64
2021/09/13 12:45:19;;;;;;;;;;;;;;;17.62;72.60;100073.97;5055129;28;19928;-62
2021/09/13 12:48:06;;;;;;;;;;;;;;;17.61;72.56;100074.84;5053663;28;19928;-62
2021/09/13 12:51:02;;;;;;;;;;;;;;;17.63;72.52;100064.34;5054343;28;20359;-62
2021/09/13 12:53:53;;;;;;;;;;;;;;;17.62;72.46;100066.09;5055342;28;19928;-63
2021/09/13 12:56:47;;;;;;;;;;;;;;;17.63;72.67;100065.22;5054850;28;19933;-62
2021/09/13 12:59:33;;;;;;;;;;;;;;;17.63;72.48;100066.97;5053595;28;19966;-62
2021/09/13 13:02:25;;;;;;;;;;;;;;;17.64;72.38;100068.69;5053996;28;20490;-63
2021/09/13 13:05:28;;;;;;;;;;;;;;;17.63;72.62;100059.09;5054201;28;20012;-62
2021/09/13 13:08:18;;;;;;;;;;;;;;;17.64;72.68;100055.59;5053339;28;20395;-62
2021/09/13 13:11:05;;;;;;;;;;;;;;;17.65;72.33;100052.97;5053147;28;19943;-63
2021/09/13 13:13:51;;;;;;;;;;;;;;;17.65;72.33;100058.22;5054564;28;20407;-63
2021/09/13 13:16:36;;;;;;;;;;;;;;;17.67;72.39;100057.31;5055007;28;19928;-62
2021/09/13 13:19:20;;;;;;;;;;;;;;;17.67;72.41;100063.41;5054083;28;20446;-62
2021/09/13 13:22:06;;;;;;;;;;;;;;;17.68;72.55;100062.53;5054737;28;19974;-63
2021/09/13 13:24:56;;;;;;;;;;;;;;;17.68;72.40;100057.28;5054419;28;20028;-63
2021/09/13 13:27:45;;;;;;;;;;;;;;;17.69;72.59;100052.91;5053294;28;20284;-64
2021/09/13 13:30:37;;;;;;;;;;;;;;;17.69;72.29;100055.53;5053430;28;19970;-64
2021/09/13 13:33:32;;;;;;;;;;;;;;;17.69;72.45;100055.53;5054548;28;20284;-64
2021/09/13 13:36:25;;;;;;;;;;;;;;;17.70;72.38;100052.91;5053579;28;19948;-64
2021/09/13 13:39:14;;;;;;;;;;;;;;;17.70;72.18;100052.91;5053572;28;19943;-63
2021/09/13 13:42:06;;;;;;;;;;;;;;;17.71;72.27;100038.91;5053609;28;19966;-62
2021/09/13 13:44:53;;;;;;;;;;;;;;;17.71;72.47;100038.91;5053555;28;19959;-62
2021/09/13 13:47:43;;;;;;;;;;;;;;;17.75;72.34;100047.59;5053726;28;20310;-62
2021/09/13 13:50:32;;;;;;;;;;;;;;;17.76;72.23;100036.22;5052992;28;20071;-62
2021/09/13 13:53:22;;;;;;;;;;;;;;;17.77;72.29;100037.97;5067204;28;19927;-63
2021/09/13 13:56:14;;;;;;;;;;;;;;;17.79;72.51;100036.19;5053964;28;20015;-63
2021/09/13 13:58:58;;;;;;;;;;;;;;;17.79;72.30;100030.94;5052972;28;20433;-63
2021/09/13 14:01:45;;;;;;;;;;;;;;;17.81;72.22;100027.41;5053659;28;19943;-62
2021/09/13 14:04:29;;;;;;;;;;;;;;;17.81;72.23;100019.53;5052783;28;19975;-62
2021/09/13 14:07:19;;;;;;;;;;;;;;;17.83;72.28;100021.28;5067002;28;20495;-62
2021/09/13 14:10:06;;;;;;;;;;;;;;;17.83;72.12;100027.38;5053027;28;19928;-62
2021/09/13 14:12:53;;;;;;;;;;;;;;;17.83;72.13;100014.25;5053030;28;20387;-63
2021/09/13 14:15:40;;;;;;;;;;;;;;;17.84;72.17;100021.25;5054089;28;19974;-63
2021/09/13 14:18:24;;;;;;;;;;;;;;;17.86;72.15;100019.47;5053175;28;19928;-62
2021/09/13 14:21:15;;;;;;;;;;;;;;;17.85;72.41;100028.22;5055710;28;19978;-62
2021/09/13 14:24:05;;;;;;;;;;;;;;;17.86;72.32;100024.72;5058204;28;19927;-62
2021/09/13 14:26:55;;;;;;;;;;;;;;;17.87;72.16;100018.59;5056622;28;19927;-62
2021/09/13 14:29:46;;;;;;;;;;;;;;;17.88;72.11;100011.59;5057972;28;19927;-62
2021/09/13 14:32:39;;;;;;;;;;;;;;;17.89;72.15;100014.19;5057067;28;19944;-63
2021/09/13 14:35:34;;;;;;;;;;;;;;;17.89;72.27;100008.94;5057694;28;20327;-62
2021/09/13 14:38:27;;;;;;;;;;;;;;;17.90;72.24;100007.22;5056472;28;20295;-62